Time;durP1;ratioP1;P1;durP2;ratioP2;P2;SDS_P1;SDS_P2;PMS_P1;PMS_P2;Temp;Humidity;BMP_temperature;BMP_pressure;BME280_temperature;BME280_humidity;BME280_pressure;Samples;Min_cycle;Max_cycle;Signal;HPM_P1;HPM_P2
2023/12/28 00:00:47;;;;;;;6.45;3.17;;;;;;;;;;5012088;28;20057;-63
2023/12/28 00:03:13;;;;;;;6.82;3.40;;;;;;;;;;5012630;28;20042;-63
2023/12/28 00:05:40;;;;;;;5.45;3.22;;;;;;;;;;5012437;28;20105;-63
2023/12/28 00:08:06;;;;;;;5.72;3.45;;;;;;;;;;5012176;28;20470;-63
2023/12/28 00:10:32;;;;;;;4.43;3.47;;;;;;;;;;5012200;28;20111;-63
2023/12/28 00:12:58;;;;;;;6.43;3.95;;;;;;;;;;5012504;28;20042;-63
2023/12/28 00:15:24;;;;;;;5.63;3.38;;;;;;;;;;5012123;28;20510;-63
2023/12/28 00:17:50;;;;;;;7.43;4.13;;;;;;;;;;5012492;28;20471;-63
2023/12/28 00:20:16;;;;;;;4.10;3.08;;;;;;;;;;4995518;28;20393;-63
2023/12/28 00:22:42;;;;;;;7.28;3.38;;;;;;;;;;4992576;28;20074;-63
2023/12/28 00:25:08;;;;;;;6.00;3.55;;;;;;;;;;4994303;28;20046;-63
2023/12/28 00:27:35;;;;;;;7.22;3.65;;;;;;;;;;5012127;28;20392;-63
2023/12/28 00:30:01;;;;;;;3.97;3.13;;;;;;;;;;5011615;28;20057;-63
2023/12/28 00:32:27;;;;;;;6.45;3.65;;;;;;;;;;5011713;28;20374;-63
2023/12/28 00:34:53;;;;;;;7.78;3.50;;;;;;;;;;5012011;28;20420;-63
2023/12/28 00:37:19;;;;;;;6.85;3.78;;;;;;;;;;5012036;28;20129;-63
2023/12/28 00:39:46;;;;;;;6.05;3.83;;;;;;;;;;5011482;28;20038;-63
2023/12/28 00:42:12;;;;;;;7.30;3.83;;;;;;;;;;5011959;28;20105;-63
2023/12/28 00:44:38;;;;;;;7.13;3.88;;;;;;;;;;5011908;28;20048;-63
2023/12/28 00:47:06;;;;;;;8.02;3.97;;;;;;;;;;5011403;28;20121;-63
2023/12/28 00:49:32;;;;;;;7.18;4.45;;;;;;;;;;5011683;28;20087;-63
2023/12/28 00:51:58;;;;;;;10.15;3.53;;;;;;;;;;5011756;28;20073;-63
2023/12/28 00:54:24;;;;;;;6.15;3.30;;;;;;;;;;5011139;28;20514;-63
2023/12/28 00:56:51;;;;;;;7.63;4.20;;;;;;;;;;5011828;28;20045;-63
2023/12/28 00:59:17;;;;;;;7.15;3.80;;;;;;;;;;5011570;28;20319;-63
2023/12/28 01:01:43;;;;;;;5.55;3.47;;;;;;;;;;5011212;28;20054;-63
2023/12/28 01:04:09;;;;;;;6.45;3.97;;;;;;;;;;5010767;28;20033;-63
2023/12/28 01:06:35;;;;;;;7.57;4.10;;;;;;;;;;5011463;28;20033;-63
2023/12/28 01:09:01;;;;;;;8.40;4.70;;;;;;;;;;5010924;28;20033;-63
2023/12/28 01:11:27;;;;;;;11.20;4.00;;;;;;;;;;5011466;28;20439;-63
2023/12/28 01:13:53;;;;;;;8.60;4.10;;;;;;;;;;5011428;28;20050;-63
2023/12/28 01:16:20;;;;;;;10.10;4.10;;;;;;;;;;5011096;28;20060;-63
2023/12/28 01:18:46;;;;;;;9.10;4.18;;;;;;;;;;5006868;28;20050;-63
2023/12/28 01:21:12;;;;;;;9.57;3.65;;;;;;;;;;4991916;28;20389;-63
2023/12/28 01:23:38;;;;;;;6.28;3.53;;;;;;;;;;4991282;28;20104;-63
2023/12/28 01:26:04;;;;;;;10.68;3.70;;;;;;;;;;4999623;28;20048;-63
2023/12/28 01:28:30;;;;;;;9.02;4.30;;;;;;;;;;5010946;28;20042;-63
2023/12/28 01:30:56;;;;;;;8.40;3.47;;;;;;;;;;5010744;28;20052;-63
2023/12/28 01:33:22;;;;;;;9.65;3.90;;;;;;;;;;5010851;28;20038;-63
2023/12/28 01:35:48;;;;;;;8.98;3.90;;;;;;;;;;5010752;28;20536;-63
2023/12/28 01:38:15;;;;;;;7.43;4.00;;;;;;;;;;5010184;28;20084;-63
2023/12/28 01:40:46;;;;;;;8.60;3.90;;;;;;;;;;5010768;28;20290;-63
2023/12/28 01:43:12;;;;;;;10.38;3.75;;;;;;;;;;4992966;28;20488;-63
2023/12/28 01:45:38;;;;;;;8.13;4.00;;;;;;;;;;5010581;28;20045;-63
2023/12/28 01:48:04;;;;;;;11.65;3.67;;;;;;;;;;5009549;28;20125;-63
2023/12/28 01:50:31;;;;;;;13.00;3.97;;;;;;;;;;5010439;28;20052;-63
2023/12/28 01:52:58;;;;;;;14.10;4.15;;;;;;;;;;5008710;28;20049;-63
2023/12/28 01:55:25;;;;;;;11.63;3.70;;;;;;;;;;5010652;28;20037;-63
2023/12/28 01:57:51;;;;;;;10.57;4.13;;;;;;;;;;5010590;28;20041;-63
2023/12/28 02:00:17;;;;;;;11.50;3.90;;;;;;;;;;5009847;28;20052;-63
2023/12/28 02:02:43;;;;;;;15.63;4.20;;;;;;;;;;5010415;28;20133;-63
2023/12/28 02:05:12;;;;;;;7.30;3.03;;;;;;;;;;5010766;28;20034;-63
2023/12/28 02:07:38;;;;;;;12.88;4.22;;;;;;;;;;5010214;28;20045;-63
2023/12/28 02:10:04;;;;;;;13.00;3.80;;;;;;;;;;5010364;28;20042;-63
2023/12/28 02:12:30;;;;;;;14.02;3.40;;;;;;;;;;5010364;28;20390;-63
2023/12/28 02:14:56;;;;;;;10.63;3.33;;;;;;;;;;5010004;28;20041;-63
2023/12/28 02:17:41;;;;;;;13.38;3.50;;;;;;;;;;5009937;28;20385;-63
2023/12/28 02:20:08;;;;;;;10.45;3.53;;;;;;;;;;4994511;28;20049;-63
2023/12/28 02:22:34;;;;;;;12.40;4.00;;;;;;;;;;4990218;28;20109;-63
2023/12/28 02:25:00;;;;;;;13.40;3.72;;;;;;;;;;4991369;28;20121;-63
2023/12/28 02:27:27;;;;;;;12.43;3.25;;;;;;;;;;5010059;28;20520;-63
2023/12/28 02:29:53;;;;;;;12.88;3.63;;;;;;;;;;5009438;28;20050;-63
2023/12/28 02:32:23;;;;;;;12.63;3.80;;;;;;;;;;5010090;28;20501;-63
2023/12/28 02:34:51;;;;;;;9.98;3.35;;;;;;;;;;5009772;28;20050;-63
2023/12/28 02:37:18;;;;;;;8.73;3.08;;;;;;;;;;5009440;28;20037;-63
2023/12/28 02:39:46;;;;;;;12.10;3.30;;;;;;;;;;5009822;28;20048;-63
2023/12/28 02:42:12;;;;;;;9.23;3.30;;;;;;;;;;5008452;28;20101;-63
2023/12/28 02:44:38;;;;;;;11.88;3.60;;;;;;;;;;5007814;28;20042;-63
2023/12/28 02:47:04;;;;;;;10.18;2.85;;;;;;;;;;5009912;28;20186;-63
2023/12/28 02:49:30;;;;;;;9.32;2.45;;;;;;;;;;5009982;28;20407;-63
2023/12/28 02:51:56;;;;;;;16.02;3.33;;;;;;;;;;5009641;28;20069;-63
2023/12/28 02:54:22;;;;;;;8.80;2.67;;;;;;;;;;5010025;28;20038;-63
2023/12/28 02:56:48;;;;;;;11.68;2.92;;;;;;;;;;5009789;28;20476;-63
2023/12/28 02:59:14;;;;;;;12.88;2.90;;;;;;;;;;5009324;28;20045;-63
2023/12/28 03:01:40;;;;;;;13.02;3.45;;;;;;;;;;5009673;28;20046;-63
2023/12/28 03:04:09;;;;;;;11.20;3.15;;;;;;;;;;5009884;28;20068;-63
2023/12/28 03:06:35;;;;;;;7.97;2.47;;;;;;;;;;5009163;28;20046;-63
2023/12/28 03:09:01;;;;;;;12.57;2.75;;;;;;;;;;5009647;28;20038;-63
2023/12/28 03:11:27;;;;;;;12.82;2.97;;;;;;;;;;5009817;28;20038;-63
2023/12/28 03:13:53;;;;;;;10.13;3.38;;;;;;;;;;5009300;28;20053;-63
2023/12/28 03:16:19;;;;;;;8.07;2.90;;;;;;;;;;5009682;28;20046;-63
2023/12/28 03:18:45;;;;;;;8.23;2.47;;;;;;;;;;5005033;28;20125;-63
2023/12/28 03:21:11;;;;;;;13.73;2.50;;;;;;;;;;4989359;28;20125;-63
2023/12/28 03:23:37;;;;;;;12.77;3.28;;;;;;;;;;4988914;28;20223;-63
2023/12/28 03:26:03;;;;;;;11.40;2.50;;;;;;;;;;4999090;28;20049;-63
2023/12/28 03:28:30;;;;;;;10.68;2.95;;;;;;;;;;5011156;28;20037;-63
2023/12/28 03:30:56;;;;;;;11.48;2.95;;;;;;;;;;5012825;28;20137;-63
2023/12/28 03:33:22;;;;;;;8.20;2.58;;;;;;;;;;5012950;28;20460;-63
2023/12/28 03:35:48;;;;;;;9.35;2.65;;;;;;;;;;5012839;28;20046;-63
2023/12/28 03:38:14;;;;;;;8.73;2.58;;;;;;;;;;5013077;28;20073;-63
2023/12/28 03:40:40;;;;;;;6.78;2.33;;;;;;;;;;5012818;28;20048;-63
2023/12/28 03:43:06;;;;;;;10.10;2.45;;;;;;;;;;5012704;28;20048;-63
2023/12/28 03:45:32;;;;;;;9.55;2.13;;;;;;;;;;5012769;28;20485;-63
2023/12/28 03:47:58;;;;;;;14.02;2.70;;;;;;;;;;5012921;28;20041;-63
2023/12/28 03:50:24;;;;;;;10.02;2.75;;;;;;;;;;5012350;28;20124;-63
2023/12/28 03:52:50;;;;;;;12.15;2.75;;;;;;;;;;5012838;28;20137;-63
2023/12/28 03:55:16;;;;;;;11.85;2.78;;;;;;;;;;5012637;28;20048;-63
2023/12/28 03:57:46;;;;;;;15.90;3.28;;;;;;;;;;5012385;28;20132;-63
2023/12/28 04:00:12;;;;;;;12.63;2.97;;;;;;;;;;5012569;28;20194;-63
2023/12/28 04:02:38;;;;;;;13.15;3.00;;;;;;;;;;5012708;28;20468;-63
2023/12/28 04:05:04;;;;;;;10.85;2.58;;;;;;;;;;5012239;28;20064;-63
2023/12/28 04:07:30;;;;;;;9.40;2.60;;;;;;;;;;5012996;28;20119;-63
2023/12/28 04:09:58;;;;;;;14.88;2.67;;;;;;;;;;5012495;28;20045;-63
2023/12/28 04:12:24;;;;;;;14.85;2.80;;;;;;;;;;5011913;28;20049;-63
2023/12/28 04:14:50;;;;;;;6.95;2.47;;;;;;;;;;5012448;28;20084;-63
2023/12/28 04:17:16;;;;;;;11.55;2.70;;;;;;;;;;5012476;28;20450;-63
2023/12/28 04:19:42;;;;;;;12.85;3.22;;;;;;;;;;4999731;28;20125;-63
2023/12/28 04:22:08;;;;;;;15.23;3.10;;;;;;;;;;4992893;28;20112;-63
2023/12/28 04:24:34;;;;;;;12.77;3.00;;;;;;;;;;4992822;28;20468;-63
2023/12/28 04:27:00;;;;;;;9.20;2.45;;;;;;;;;;5009208;28;20084;-63
2023/12/28 04:29:26;;;;;;;12.50;2.45;;;;;;;;;;5011587;28;20096;-63
2023/12/28 04:31:52;;;;;;;9.35;2.63;;;;;;;;;;5012432;28;20103;-63
2023/12/28 04:34:18;;;;;;;15.32;2.80;;;;;;;;;;5011613;28;20053;-63
2023/12/28 04:36:48;;;;;;;7.53;2.20;;;;;;;;;;5011935;28;20417;-63
2023/12/28 04:39:14;;;;;;;14.15;3.15;;;;;;;;;;5010655;28;20041;-63
2023/12/28 04:41:40;;;;;;;12.73;2.60;;;;;;;;;;5011881;28;20046;-63
2023/12/28 04:44:06;;;;;;;17.33;3.15;;;;;;;;;;5012001;28;20042;-63
2023/12/28 04:46:32;;;;;;;11.98;3.47;;;;;;;;;;5011923;28;20041;-63
2023/12/28 04:48:58;;;;;;;17.20;2.72;;;;;;;;;;5011651;28;20643;-63
2023/12/28 04:51:24;;;;;;;14.88;2.83;;;;;;;;;;5011505;28;20073;-63
2023/12/28 04:53:50;;;;;;;11.00;2.45;;;;;;;;;;5011625;28;20483;-63
2023/12/28 04:56:19;;;;;;;10.90;2.17;;;;;;;;;;5011718;28;20045;-64
2023/12/28 04:58:46;;;;;;;15.32;2.95;;;;;;;;;;5011224;28;20073;-63
2023/12/28 05:01:12;;;;;;;15.23;3.33;;;;;;;;;;5011608;28;20052;-63
2023/12/28 05:03:38;;;;;;;17.30;3.33;;;;;;;;;;5011647;28;20038;-63
2023/12/28 05:06:04;;;;;;;16.52;2.70;;;;;;;;;;5011487;28;20543;-63
2023/12/28 05:08:30;;;;;;;11.35;2.83;;;;;;;;;;5011289;28;20497;-63
2023/12/28 05:10:56;;;;;;;14.15;2.50;;;;;;;;;;5011220;28;20033;-63
2023/12/28 05:13:22;;;;;;;15.05;2.63;;;;;;;;;;5011392;28;20125;-63
2023/12/28 05:15:48;;;;;;;19.48;2.92;;;;;;;;;;5011396;28;20539;-63
2023/12/28 05:18:14;;;;;;;10.10;2.17;;;;;;;;;;5010891;28;20038;-64
2023/12/28 05:20:40;;;;;;;16.95;2.40;;;;;;;;;;4991675;28;20504;-64
2023/12/28 05:23:06;;;;;;;14.07;2.63;;;;;;;;;;4991736;28;20038;-63
2023/12/28 05:25:32;;;;;;;19.90;2.58;;;;;;;;;;4996645;28;20034;-63
2023/12/28 05:27:58;;;;;;;16.98;2.70;;;;;;;;;;5010712;28;20042;-63
2023/12/28 05:30:24;;;;;;;15.95;2.78;;;;;;;;;;5010592;28;20085;-63
2023/12/28 05:32:50;;;;;;;13.45;2.30;;;;;;;;;;5011083;28;20501;-64
2023/12/28 05:35:16;;;;;;;14.18;2.42;;;;;;;;;;5010660;28;20171;-63
2023/12/28 05:37:42;;;;;;;13.60;2.60;;;;;;;;;;5011106;28;20156;-63
2023/12/28 05:40:09;;;;;;;17.33;2.80;;;;;;;;;;5011013;28;20056;-63
2023/12/28 05:42:35;;;;;;;14.07;2.63;;;;;;;;;;5010471;28;20168;-63
2023/12/28 05:45:01;;;;;;;16.77;2.92;;;;;;;;;;5010867;28;20045;-63
2023/12/28 05:47:27;;;;;;;18.08;3.15;;;;;;;;;;5010788;28;20033;-63
2023/12/28 05:49:53;;;;;;;10.45;3.05;;;;;;;;;;5009886;28;20425;-63
2023/12/28 05:52:19;;;;;;;11.07;2.50;;;;;;;;;;5010516;28;20096;-63
2023/12/28 05:54:47;;;;;;;19.23;2.40;;;;;;;;;;5010748;28;20057;-63
2023/12/28 05:57:13;;;;;;;10.10;2.53;;;;;;;;;;5010354;28;20046;-63
2023/12/28 05:59:40;;;;;;;14.63;2.47;;;;;;;;;;5010227;28;20033;-63
2023/12/28 06:02:06;;;;;;;19.17;2.97;;;;;;;;;;5010166;28;20065;-63
2023/12/28 06:04:33;;;;;;;15.00;3.45;;;;;;;;;;5010173;28;20513;-63
2023/12/28 06:06:59;;;;;;;17.35;3.25;;;;;;;;;;5010397;28;20509;-63
2023/12/28 06:09:27;;;;;;;14.65;2.70;;;;;;;;;;5008834;28;20047;-63
2023/12/28 06:11:53;;;;;;;19.95;2.90;;;;;;;;;;5010098;28;20481;-63
2023/12/28 06:14:19;;;;;;;11.57;2.78;;;;;;;;;;5010320;28;20041;-63
2023/12/28 06:16:45;;;;;;;15.25;2.67;;;;;;;;;;5010342;28;20095;-63
2023/12/28 06:19:12;;;;;;;16.77;2.53;;;;;;;;;;5001918;28;20530;-63
2023/12/28 06:21:38;;;;;;;13.15;2.55;;;;;;;;;;4990515;28;20104;-63
2023/12/28 06:24:04;;;;;;;20.45;2.95;;;;;;;;;;4989381;28;20042;-63
2023/12/28 06:26:30;;;;;;;17.90;3.20;;;;;;;;;;5002789;28;20099;-63
2023/12/28 06:28:56;;;;;;;16.33;2.70;;;;;;;;;;5009831;28;20513;-63
2023/12/28 06:31:22;;;;;;;18.02;2.80;;;;;;;;;;5008602;28;20058;-63
2023/12/28 06:33:48;;;;;;;17.27;2.72;;;;;;;;;;5009711;28;20038;-64
2023/12/28 06:36:14;;;;;;;12.75;2.78;;;;;;;;;;5010096;28;20129;-63
2023/12/28 06:38:40;;;;;;;16.42;2.67;;;;;;;;;;5010086;28;20049;-64
2023/12/28 06:41:13;;;;;;;14.02;3.05;;;;;;;;;;5009613;28;20044;-63
2023/12/28 06:43:39;;;;;;;10.85;2.70;;;;;;;;;;5010224;28;20111;-63
2023/12/28 06:46:05;;;;;;;19.50;3.17;;;;;;;;;;5010004;28;20053;-63
2023/12/28 06:48:31;;;;;;;18.85;3.03;;;;;;;;;;5009190;28;20477;-63
2023/12/28 06:50:57;;;;;;;17.98;3.35;;;;;;;;;;5009843;28;20064;-63
2023/12/28 06:53:23;;;;;;;13.90;2.40;;;;;;;;;;5010004;28;20532;-63
2023/12/28 06:55:49;;;;;;;18.15;2.83;;;;;;;;;;5009532;28;20044;-64
2023/12/28 06:58:15;;;;;;;19.90;2.85;;;;;;;;;;5009843;28;20064;-63
2023/12/28 07:00:43;;;;;;;14.95;3.47;;;;;;;;;;5009818;28;20042;-64
2023/12/28 07:03:09;;;;;;;19.55;3.38;;;;;;;;;;5010896;28;20116;-63
2023/12/28 07:05:35;;;;;;;16.13;2.95;;;;;;;;;;5013795;28;20368;-64
2023/12/28 07:08:01;;;;;;;16.55;2.50;;;;;;;;;;5013624;28;20034;-63
2023/12/28 07:10:28;;;;;;;15.00;3.08;;;;;;;;;;5013153;28;20042;-63
2023/12/28 07:12:54;;;;;;;24.98;3.50;;;;;;;;;;5013669;28;20115;-63
2023/12/28 07:15:20;;;;;;;15.00;2.97;;;;;;;;;;5012186;28;20346;-64
2023/12/28 07:17:46;;;;;;;11.30;2.75;;;;;;;;;;5012820;28;20064;-63
2023/12/28 07:20:12;;;;;;;16.70;2.53;;;;;;;;;;4996992;28;20085;-64
2023/12/28 07:22:38;;;;;;;18.67;3.28;;;;;;;;;;5010543;28;20073;-63
2023/12/28 07:25:06;;;;;;;13.52;2.85;;;;;;;;;;5013022;28;20048;-63
2023/12/28 07:27:32;;;;;;;14.25;3.05;;;;;;;;;;4995179;28;20077;-64
2023/12/28 07:29:58;;;;;;;19.73;2.90;;;;;;;;;;4993513;28;20445;-63
2023/12/28 07:32:25;;;;;;;17.98;3.88;;;;;;;;;;4993019;28;20061;-63
2023/12/28 07:34:52;;;;;;;13.82;2.92;;;;;;;;;;4993733;28;20096;-63
2023/12/28 07:37:18;;;;;;;16.35;3.45;;;;;;;;;;4993694;28;20078;-63
2023/12/28 07:39:44;;;;;;;20.00;3.05;;;;;;;;;;4993010;28;20092;-63
2023/12/28 07:42:11;;;;;;;17.23;3.47;;;;;;;;;;4993486;28;20046;-63
2023/12/28 07:44:37;;;;;;;22.23;4.20;;;;;;;;;;4994798;28;20125;-63
2023/12/28 07:47:03;;;;;;;18.63;3.25;;;;;;;;;;4994250;28;20046;-63
2023/12/28 07:49:29;;;;;;;22.13;2.72;;;;;;;;;;4994001;28;20038;-63
2023/12/28 07:51:55;;;;;;;15.90;2.60;;;;;;;;;;4993275;28;20049;-63
2023/12/28 07:54:21;;;;;;;21.48;3.60;;;;;;;;;;4992908;28;20046;-63
2023/12/28 07:56:47;;;;;;;19.50;3.67;;;;;;;;;;4993272;28;20152;-63
2023/12/28 07:59:13;;;;;;;24.42;3.78;;;;;;;;;;4993124;28;20042;-63
2023/12/28 08:01:39;;;;;;;19.83;3.78;;;;;;;;;;4992687;28;20050;-63
2023/12/28 08:04:06;;;;;;;20.40;3.30;;;;;;;;;;4993137;28;20065;-63
2023/12/28 08:06:32;;;;;;;16.95;2.88;;;;;;;;;;4993115;28;20052;-63
2023/12/28 08:09:02;;;;;;;24.90;3.75;;;;;;;;;;4991432;28;20096;-63
2023/12/28 08:11:28;;;;;;;18.33;3.30;;;;;;;;;;4992949;28;20469;-63
2023/12/28 08:13:54;;;;;;;21.63;3.72;;;;;;;;;;4992675;28;20393;-63
2023/12/28 08:16:20;;;;;;;21.45;4.15;;;;;;;;;;4992591;28;20066;-63
2023/12/28 08:18:47;;;;;;;22.77;3.53;;;;;;;;;;4997193;28;20042;-63
2023/12/28 08:21:13;;;;;;;19.48;2.90;;;;;;;;;;5012244;28;20117;-63
2023/12/28 08:23:39;;;;;;;20.85;3.47;;;;;;;;;;5012473;28;20044;-63
2023/12/28 08:26:06;;;;;;;16.95;3.22;;;;;;;;;;5002551;28;20114;-63
2023/12/28 08:28:32;;;;;;;28.08;3.45;;;;;;;;;;4991461;28;20568;-63
2023/12/28 08:30:58;;;;;;;17.38;3.40;;;;;;;;;;4992029;28;20125;-63
2023/12/28 08:33:25;;;;;;;19.88;3.35;;;;;;;;;;4992031;28;20456;-63
2023/12/28 08:35:51;;;;;;;25.25;3.90;;;;;;;;;;4992145;28;20137;-63
2023/12/28 08:38:17;;;;;;;21.60;4.10;;;;;;;;;;4990756;28;20130;-63
2023/12/28 08:40:44;;;;;;;27.38;4.47;;;;;;;;;;4991175;28;20121;-63
2023/12/28 08:43:10;;;;;;;24.15;3.78;;;;;;;;;;4991402;28;20118;-63
2023/12/28 08:45:36;;;;;;;23.52;4.28;;;;;;;;;;4992166;28;20038;-63
2023/12/28 08:48:02;;;;;;;20.05;4.85;;;;;;;;;;4991313;28;20371;-63
2023/12/28 08:50:28;;;;;;;23.20;4.78;;;;;;;;;;4991349;28;20066;-63
2023/12/28 08:52:55;;;;;;;19.17;3.60;;;;;;;;;;4992109;28;20607;-63
2023/12/28 08:55:21;;;;;;;31.10;4.15;;;;;;;;;;4993799;28;20489;-63
2023/12/28 08:57:47;;;;;;;19.20;3.92;;;;;;;;;;5011507;28;20038;-63
2023/12/28 09:00:17;;;;;;;21.92;4.30;;;;;;;;;;4996929;28;20189;-63
2023/12/28 09:02:43;;;;;;;21.40;3.35;;;;;;;;;;4989572;28;20104;-63
2023/12/28 09:05:10;;;;;;;26.73;3.90;;;;;;;;;;4991607;28;20089;-63
2023/12/28 09:07:42;;;;;;;25.30;4.38;;;;;;;;;;4991292;28;20046;-63
2023/12/28 09:10:08;;;;;;;19.13;3.85;;;;;;;;;;4990952;28;20077;-63
2023/12/28 09:12:34;;;;;;;24.00;3.75;;;;;;;;;;4991126;28;20288;-63
2023/12/28 09:15:00;;;;;;;22.20;4.07;;;;;;;;;;4991155;28;20092;-63
2023/12/28 09:17:26;;;;;;;22.77;3.47;;;;;;;;;;4991107;28;20129;-63
2023/12/28 09:19:52;;;;;;;29.92;3.72;;;;;;;;;;4995022;28;20136;-63
2023/12/28 09:22:18;;;;;;;21.33;3.78;;;;;;;;;;4999466;28;20046;-63
2023/12/28 09:24:44;;;;;;;21.90;3.88;;;;;;;;;;5001537;28;20083;-63
2023/12/28 09:27:10;;;;;;;27.42;4.40;;;;;;;;;;5001092;28;20042;-63
2023/12/28 09:29:37;;;;;;;23.10;3.63;;;;;;;;;;4991188;28;20038;-63
2023/12/28 09:32:03;;;;;;;20.90;4.45;;;;;;;;;;4988934;28;20059;-63
2023/12/28 09:34:29;;;;;;;29.35;3.95;;;;;;;;;;4990998;28;20050;-63
2023/12/28 09:36:55;;;;;;;20.85;3.22;;;;;;;;;;4990717;28;20049;-64
2023/12/28 09:39:21;;;;;;;19.10;3.63;;;;;;;;;;4995394;28;20469;-64
2023/12/28 09:41:49;;;;;;;28.55;5.18;;;;;;;;;;5004654;28;20046;-64
2023/12/28 09:44:16;;;;;;;20.05;3.38;;;;;;;;;;4999261;28;20044;-65
2023/12/28 09:46:42;;;;;;;25.73;3.20;;;;;;;;;;5002134;28;20038;-64
2023/12/28 09:49:09;;;;;;;24.83;4.82;;;;;;;;;;5006834;28;20100;-64
2023/12/28 09:51:35;;;;;;;21.10;3.08;;;;;;;;;;4996319;28;20089;-65
2023/12/28 09:54:03;;;;;;;18.33;3.30;;;;;;;;;;4995410;28;20034;-65
2023/12/28 09:56:30;;;;;;;21.40;3.35;;;;;;;;;;4991214;28;20486;-65
2023/12/28 09:58:57;;;;;;;22.15;4.10;;;;;;;;;;4994808;28;20042;-65
2023/12/28 10:01:24;;;;;;;25.83;3.75;;;;;;;;;;4997303;28;20034;-64
2023/12/28 10:03:51;;;;;;;22.55;3.78;;;;;;;;;;5004705;28;20045;-65
2023/12/28 10:06:17;;;;;;;17.98;3.50;;;;;;;;;;4991068;28;20046;-65
2023/12/28 10:08:50;;;;;;;17.98;3.38;;;;;;;;;;4992070;28;20129;-64
2023/12/28 10:11:16;;;;;;;17.63;3.25;;;;;;;;;;5002612;28;20041;-64
2023/12/28 10:13:43;;;;;;;19.27;4.13;;;;;;;;;;5005858;28;20077;-65
2023/12/28 10:16:12;;;;;;;20.63;3.63;;;;;;;;;;4991040;28;20053;-64
2023/12/28 10:18:44;;;;;;;28.90;3.58;;;;;;;;;;4999985;28;20041;-65
2023/12/28 10:21:10;;;;;;;19.15;4.15;;;;;;;;;;4999692;28;20045;-65
2023/12/28 10:23:37;;;;;;;18.60;3.33;;;;;;;;;;4991689;28;20562;-65
2023/12/28 10:26:04;;;;;;;26.63;4.00;;;;;;;;;;4991179;28;20034;-65
2023/12/28 10:28:33;;;;;;;23.80;3.72;;;;;;;;;;4990380;28;20795;-64
2023/12/28 10:31:00;;;;;;;23.38;3.42;;;;;;;;;;4994953;28;20061;-64
2023/12/28 10:33:26;;;;;;;21.63;3.70;;;;;;;;;;4994539;28;20061;-64
2023/12/28 10:35:52;;;;;;;24.20;4.05;;;;;;;;;;4993602;28;20049;-65
2023/12/28 10:38:18;;;;;;;18.65;3.15;;;;;;;;;;4989819;28;20601;-64
2023/12/28 10:40:49;;;;;;;27.52;3.92;;;;;;;;;;4991641;28;20121;-65
2023/12/28 10:43:17;;;;;;;20.00;3.15;;;;;;;;;;4999769;28;20050;-65
2023/12/28 10:45:47;;;;;;;24.27;3.42;;;;;;;;;;4991075;28;20043;-64
2023/12/28 10:48:13;;;;;;;20.65;3.03;;;;;;;;;;4989643;28;20389;-65
2023/12/28 10:50:52;;;;;;;20.23;3.88;;;;;;;;;;4990514;28;20034;-64
2023/12/28 10:53:22;;;;;;;22.67;3.53;;;;;;;;;;4998446;28;20046;-65
2023/12/28 10:55:57;;;;;;;17.17;3.63;;;;;;;;;;4997077;28;20048;-65
2023/12/28 10:58:29;;;;;;;20.88;3.40;;;;;;;;;;5001642;28;20042;-65
2023/12/28 11:00:57;;;;;;;21.15;3.20;;;;;;;;;;4990780;28;20050;-65
2023/12/28 11:03:28;;;;;;;21.40;3.80;;;;;;;;;;5004393;28;20129;-65
2023/12/28 11:05:56;;;;;;;26.15;3.97;;;;;;;;;;4999886;28;20041;-65
2023/12/28 11:08:22;;;;;;;29.80;3.63;;;;;;;;;;4992641;28;20129;-65
2023/12/28 11:10:48;;;;;;;19.23;3.05;;;;;;;;;;4994968;28;20044;-65
2023/12/28 11:13:15;;;;;;;19.13;2.90;;;;;;;;;;4990034;28;20100;-66
2023/12/28 11:15:41;;;;;;;18.85;4.03;;;;;;;;;;4990255;28;20038;-66
2023/12/28 11:18:07;;;;;;;26.05;3.97;;;;;;;;;;4990276;28;20054;-65
2023/12/28 11:20:34;;;;;;;20.88;3.35;;;;;;;;;;4991728;28;20046;-65
2023/12/28 11:23:00;;;;;;;22.40;3.85;;;;;;;;;;5002746;28;20062;-65
2023/12/28 11:25:31;;;;;;;28.75;3.75;;;;;;;;;;5002064;28;20038;-66
2023/12/28 11:27:57;;;;;;;19.63;3.58;;;;;;;;;;4990064;28;20429;-65
2023/12/28 11:30:26;;;;;;;25.30;4.03;;;;;;;;;;4989319;28;20109;-65
2023/12/28 11:32:56;;;;;;;20.67;3.67;;;;;;;;;;4997249;28;20129;-65
2023/12/28 11:35:22;;;;;;;25.00;3.70;;;;;;;;;;5008735;28;20057;-65
2023/12/28 11:37:51;;;;;;;23.55;4.35;;;;;;;;;;5007035;28;20393;-65
2023/12/28 11:40:21;;;;;;;20.60;3.55;;;;;;;;;;4998306;28;20493;-65
2023/12/28 11:42:51;;;;;;;26.15;4.68;;;;;;;;;;5000147;28;20117;-65
2023/12/28 11:45:17;;;;;;;23.20;3.47;;;;;;;;;;4989063;28;20093;-65
2023/12/28 11:47:44;;;;;;;17.13;2.80;;;;;;;;;;5001326;28;20038;-65
2023/12/28 11:50:10;;;;;;;22.05;3.92;;;;;;;;;;5001319;28;20400;-65
2023/12/28 11:52:36;;;;;;;23.13;3.60;;;;;;;;;;4993408;28;20539;-65
2023/12/28 11:55:02;;;;;;;19.30;3.47;;;;;;;;;;5002642;28;20053;-65
2023/12/28 11:57:28;;;;;;;22.30;3.70;;;;;;;;;;4992540;28;20104;-65
2023/12/28 12:00:02;;;;;;;22.38;4.30;;;;;;;;;;5008563;28;20061;-64
2023/12/28 12:02:28;;;;;;;26.23;3.65;;;;;;;;;;5010520;28;20092;-65
2023/12/28 12:04:57;;;;;;;23.13;3.60;;;;;;;;;;5009756;28;20052;-64
2023/12/28 12:07:25;;;;;;;19.75;4.03;;;;;;;;;;5003296;28;20053;-65
2023/12/28 12:09:55;;;;;;;27.35;3.92;;;;;;;;;;5000896;28;20053;-65
2023/12/28 12:12:23;;;;;;;21.02;3.22;;;;;;;;;;4997741;28;20046;-64
2023/12/28 12:14:49;;;;;;;20.92;3.72;;;;;;;;;;4992702;28;20050;-65
2023/12/28 12:17:15;;;;;;;33.65;4.55;;;;;;;;;;5001351;28;20042;-65
2023/12/28 12:19:42;;;;;;;28.83;4.15;;;;;;;;;;5001465;28;20054;-65
2023/12/28 12:22:08;;;;;;;23.38;3.90;;;;;;;;;;5002098;28;20550;-65
2023/12/28 12:24:35;;;;;;;22.08;3.90;;;;;;;;;;4997162;28;20185;-65
2023/12/28 12:27:03;;;;;;;28.52;4.32;;;;;;;;;;4993916;28;20037;-65
2023/12/28 12:29:30;;;;;;;22.33;4.35;;;;;;;;;;4991632;28;20132;-65
2023/12/28 12:31:56;;;;;;;29.42;4.78;;;;;;;;;;4992674;28;20054;-65
2023/12/28 12:34:22;;;;;;;23.38;3.60;;;;;;;;;;4992549;28;20168;-65
2023/12/28 12:36:52;;;;;;;34.20;4.95;;;;;;;;;;4992455;28;20042;-65
2023/12/28 12:39:18;;;;;;;23.45;3.92;;;;;;;;;;5007957;28;20056;-65
2023/12/28 12:41:47;;;;;;;30.02;4.30;;;;;;;;;;4994471;28;20051;-65
2023/12/28 12:44:13;;;;;;;21.48;3.67;;;;;;;;;;5001755;28;20034;-65
2023/12/28 12:46:39;;;;;;;25.38;3.90;;;;;;;;;;5004711;28;20053;-65
2023/12/28 12:49:07;;;;;;;27.00;4.15;;;;;;;;;;5005522;28;20042;-65
2023/12/28 12:51:33;;;;;;;27.92;4.10;;;;;;;;;;5007527;28;20057;-65
2023/12/28 12:54:03;;;;;;;19.85;3.92;;;;;;;;;;4992151;28;20117;-65
2023/12/28 12:56:29;;;;;;;24.15;3.83;;;;;;;;;;4992490;28;20465;-65
2023/12/28 12:58:56;;;;;;;23.42;3.40;;;;;;;;;;5005054;28;20408;-65
2023/12/28 13:01:22;;;;;;;20.05;4.00;;;;;;;;;;4996850;28;20627;-65
2023/12/28 13:03:48;;;;;;;24.15;4.97;;;;;;;;;;4992773;28;20062;-65
2023/12/28 13:06:14;;;;;;;25.95;3.75;;;;;;;;;;4992541;28;20136;-65
2023/12/28 13:08:40;;;;;;;23.65;4.25;;;;;;;;;;4992310;28;20046;-65
2023/12/28 13:11:06;;;;;;;27.67;4.28;;;;;;;;;;4992300;28;20117;-66
2023/12/28 13:13:33;;;;;;;27.25;4.55;;;;;;;;;;5006955;28;20140;-67
2023/12/28 13:15:59;;;;;;;31.20;5.28;;;;;;;;;;5003635;28;20479;-66
2023/12/28 13:18:25;;;;;;;17.23;3.10;;;;;;;;;;4990538;28;20121;-66
2023/12/28 13:20:51;;;;;;;26.92;3.30;;;;;;;;;;4993318;28;20042;-66
2023/12/28 13:23:17;;;;;;;23.77;4.47;;;;;;;;;;4998959;28;20100;-66
2023/12/28 13:25:44;;;;;;;23.23;3.65;;;;;;;;;;4997353;28;20145;-66
2023/12/28 13:28:10;;;;;;;22.48;3.83;;;;;;;;;;4993321;28;20485;-65
2023/12/28 13:30:37;;;;;;;24.70;3.90;;;;;;;;;;5002071;28;20889;-66
2023/12/28 13:33:05;;;;;;;22.85;4.03;;;;;;;;;;4996509;28;20382;-66
2023/12/28 13:35:33;;;;;;;15.75;3.58;;;;;;;;;;4992774;28;20058;-65
2023/12/28 13:41:21;;;;;;;27.65;4.13;;;;;;;;;;4990801;28;20489;-66
2023/12/28 13:43:47;;;;;;;23.48;4.22;;;;;;;;;;4997764;28;20050;-65
2023/12/28 13:46:13;;;;;;;22.38;4.15;;;;;;;;;;5002147;28;20029;-65
2023/12/28 13:48:39;;;;;;;29.10;4.20;;;;;;;;;;4997488;28;20034;-65
2023/12/28 13:51:06;;;;;;;19.65;3.38;;;;;;;;;;4990076;28;20120;-65
2023/12/28 13:53:35;;;;;;;26.70;3.42;;;;;;;;;;5003224;28;20054;-66
2023/12/28 13:56:02;;;;;;;24.95;3.28;;;;;;;;;;4995073;28;20053;-66
2023/12/28 13:58:28;;;;;;;26.25;4.68;;;;;;;;;;5003897;28;20100;-66
2023/12/28 14:00:54;;;;;;;22.40;4.30;;;;;;;;;;4995793;28;20047;-66
2023/12/28 14:03:21;;;;;;;27.63;3.90;;;;;;;;;;4994743;28;20141;-66
2023/12/28 14:05:47;;;;;;;23.13;4.22;;;;;;;;;;4992211;28;20129;-66
2023/12/28 14:08:13;;;;;;;27.73;4.40;;;;;;;;;;4995273;28;20050;-66
2023/12/28 14:10:39;;;;;;;22.77;4.13;;;;;;;;;;5004121;28;20050;-66
2023/12/28 14:13:05;;;;;;;24.65;3.92;;;;;;;;;;4997000;28;20129;-65
2023/12/28 14:15:31;;;;;;;22.73;4.13;;;;;;;;;;4997933;28;20046;-66
2023/12/28 14:17:57;;;;;;;24.58;3.75;;;;;;;;;;4997174;28;20057;-66
2023/12/28 14:20:23;;;;;;;19.38;3.15;;;;;;;;;;4999266;28;20043;-66
2023/12/28 14:22:49;;;;;;;25.58;3.88;;;;;;;;;;4991034;28;20049;-66
2023/12/28 14:25:16;;;;;;;24.23;4.20;;;;;;;;;;4993528;28;20041;-66
2023/12/28 14:27:43;;;;;;;26.02;3.92;;;;;;;;;;4996761;28;20034;-66
2023/12/28 14:30:10;;;;;;;24.35;3.97;;;;;;;;;;4990543;28;20056;-66